createdAt,value
2022-09-14T00:02:21.665Z,80.64
2022-09-14T00:05:08.424Z,82.62
2022-09-14T00:07:54.571Z,85.95
2022-09-14T00:10:42.151Z,85.03
2022-09-14T00:13:28.249Z,87.82
2022-09-14T00:16:18.335Z,85.53
2022-09-14T00:19:06.787Z,80.58
2022-09-14T00:21:57.802Z,80.95
2022-09-14T00:24:43.720Z,79.01
2022-09-14T00:27:30.002Z,83.11
2022-09-14T00:30:15.794Z,83.41
2022-09-14T00:33:02.245Z,83.05
2022-09-14T00:35:48.233Z,79.76
2022-09-14T00:38:35.756Z,79.17
2022-09-14T00:41:27.332Z,80.16
2022-09-14T00:44:13.628Z,82.40
2022-09-14T00:47:01.551Z,81.30
2022-09-14T00:49:48.035Z,79.87
2022-09-14T00:52:35.552Z,78.21
2022-09-14T00:55:23.625Z,81.10
2022-09-14T00:58:09.534Z,84.19
2022-09-14T01:00:55.924Z,82.84
2022-09-14T01:03:42.214Z,79.25
2022-09-14T01:06:46.888Z,81.54
2022-09-14T01:09:41.732Z,80.22
2022-09-14T01:12:44.670Z,81.85
2022-09-14T01:15:52.316Z,83.52
2022-09-14T01:18:51.833Z,85.35
2022-09-14T01:21:38.715Z,81.04
2022-09-14T01:24:46.555Z,78.41
2022-09-14T01:27:43.989Z,80.13
2022-09-14T01:30:32.148Z,79.05
2022-09-14T01:33:27.218Z,80.15
2022-09-14T01:36:15.191Z,79.92
2022-09-14T01:39:01.847Z,79.18
2022-09-14T01:41:49.781Z,81.13
2022-09-14T01:44:37.619Z,81.72
2022-09-14T01:47:31.755Z,83.53
2022-09-14T01:50:22.539Z,83.41
2022-09-14T01:53:19.678Z,83.39
2022-09-14T01:56:26.809Z,83.71
2022-09-14T01:59:17.342Z,82.14
2022-09-14T02:02:07.733Z,82.72
2022-09-14T02:05:02.714Z,81.83
2022-09-14T02:07:48.660Z,82.11
2022-09-14T02:10:35.485Z,81.95
2022-09-14T02:13:22.191Z,78.75
2022-09-14T02:16:08.792Z,80.04
2022-09-14T02:18:55.108Z,83.80
2022-09-14T02:21:41.501Z,84.26
2022-09-14T02:24:28.358Z,83.13
2022-09-14T02:27:15.211Z,81.54
2022-09-14T02:30:00.920Z,81.20
2022-09-14T02:33:08.495Z,81.96
2022-09-14T02:35:56.081Z,84.26
2022-09-14T02:39:07.030Z,82.03
2022-09-14T02:42:11.578Z,86.19
2022-09-14T02:45:00.314Z,85.48
2022-09-14T02:48:04.151Z,80.83
2022-09-14T02:50:50.382Z,81.77
2022-09-14T02:53:53.772Z,85.12
2022-09-14T02:56:39.910Z,85.70
2022-09-14T02:59:25.688Z,86.05
2022-09-14T03:02:12.143Z,85.99
2022-09-14T03:04:58.577Z,84.10
2022-09-14T03:07:44.734Z,84.16
2022-09-14T03:10:31.719Z,85.01
2022-09-14T03:13:18.076Z,84.80
2022-09-14T03:16:07.510Z,90.77
2022-09-14T03:18:54.000Z,95.21
2022-09-14T03:21:40.274Z,92.48
2022-09-14T03:24:26.053Z,88.93
2022-09-14T03:27:11.843Z,88.34
2022-09-14T03:29:57.653Z,94.45
2022-09-14T03:32:43.514Z,97.66
2022-09-14T03:35:31.352Z,94.50
2022-09-14T03:38:17.087Z,90.12
2022-09-14T03:41:07.899Z,89.60
2022-09-14T03:43:53.908Z,88.08
2022-09-14T03:46:40.125Z,90.67
2022-09-14T03:49:25.708Z,89.98
2022-09-14T03:52:12.140Z,90.99
2022-09-14T03:54:58.019Z,89.59
2022-09-14T03:57:44.303Z,87.10
2022-09-14T04:00:30.083Z,88.34
2022-09-14T04:03:16.608Z,90.71
2022-09-14T04:06:05.403Z,89.80
2022-09-14T04:08:51.940Z,92.62
2022-09-14T04:11:37.519Z,96.54
2022-09-14T04:14:23.660Z,89.78
2022-09-14T04:17:09.327Z,88.78
2022-09-14T04:19:55.324Z,89.63
2022-09-14T04:22:41.569Z,91.66
2022-09-14T04:25:27.547Z,90.36
2022-09-14T04:28:20.969Z,90.41
2022-09-14T04:31:07.039Z,90.81
2022-09-14T04:33:55.899Z,89.68
2022-09-14T04:36:42.092Z,91.78
2022-09-14T04:39:27.873Z,89.14
2022-09-14T04:42:14.573Z,89.66
2022-09-14T04:45:00.366Z,90.35
2022-09-14T04:47:46.933Z,93.28
2022-09-14T04:50:33.110Z,89.76
2022-09-14T04:53:21.600Z,87.79
2022-09-14T04:56:09.913Z,88.00
2022-09-14T04:59:01.938Z,89.04
2022-09-14T05:01:49.623Z,90.37
2022-09-14T05:04:35.990Z,91.90
2022-09-14T05:07:21.850Z,89.70
2022-09-14T05:10:08.476Z,91.13
2022-09-14T05:12:54.503Z,92.85
2022-09-14T05:15:42.622Z,93.40
2022-09-14T05:18:28.738Z,93.58
2022-09-14T05:21:17.650Z,92.38
2022-09-14T05:24:08.288Z,91.44
2022-09-14T05:26:59.461Z,92.35
2022-09-14T05:29:46.935Z,90.57
2022-09-14T05:32:33.124Z,88.53
2022-09-14T05:35:19.192Z,87.70
2022-09-14T05:38:05.364Z,86.43
2022-09-14T05:40:55.096Z,87.83
2022-09-14T05:43:42.382Z,84.43
2022-09-14T05:46:28.610Z,84.05
2022-09-14T05:49:14.776Z,82.71
2022-09-14T05:52:00.962Z,81.77
2022-09-14T05:54:47.531Z,85.62
2022-09-14T05:57:33.859Z,84.50
2022-09-14T06:00:21.687Z,83.01
2022-09-14T06:03:08.160Z,79.07
2022-09-14T06:05:57.899Z,79.36
2022-09-14T06:08:44.645Z,79.27
2022-09-14T06:11:33.377Z,77.92
2022-09-14T06:14:20.858Z,77.21
2022-09-14T06:17:06.885Z,77.29
2022-09-14T06:19:53.268Z,76.28
2022-09-14T06:22:39.171Z,76.48
2022-09-14T06:25:25.554Z,79.25
2022-09-14T06:28:11.544Z,74.19
2022-09-14T06:30:58.364Z,75.40
2022-09-14T06:33:45.722Z,72.25
2022-09-14T06:36:32.261Z,72.28
2022-09-14T06:39:18.104Z,74.19
2022-09-14T06:42:04.911Z,76.81
2022-09-14T06:44:50.823Z,74.67
2022-09-14T06:47:37.283Z,76.34
2022-09-14T06:50:23.310Z,74.68
2022-09-14T06:53:09.557Z,75.92
2022-09-14T06:55:59.138Z,75.22
2022-09-14T06:58:45.527Z,77.66
2022-09-14T07:01:31.959Z,75.09
2022-09-14T07:04:18.264Z,78.45
2022-09-14T07:07:04.143Z,84.05
2022-09-14T07:09:50.470Z,84.86
2022-09-14T07:12:36.426Z,83.08
2022-09-14T07:15:22.786Z,84.40
2022-09-14T07:18:08.651Z,84.87
2022-09-14T07:20:55.475Z,84.89
2022-09-14T07:23:43.692Z,82.81
2022-09-14T07:26:32.307Z,82.11
2022-09-14T07:29:19.325Z,82.36
2022-09-14T07:32:05.925Z,84.47
2022-09-14T07:34:52.303Z,85.03
2022-09-14T07:37:38.594Z,86.48
2022-09-14T07:40:25.252Z,87.81
2022-09-14T07:43:12.356Z,88.19
2022-09-14T07:46:02.087Z,82.09
2022-09-14T07:48:49.307Z,83.37
2022-09-14T07:51:36.802Z,83.49
2022-09-14T07:54:23.098Z,80.61
2022-09-14T07:57:09.702Z,82.53
2022-09-14T07:59:58.512Z,84.35
2022-09-14T08:02:44.738Z,84.83
2022-09-14T08:05:31.337Z,85.75
2022-09-14T08:08:17.130Z,84.20
2022-09-14T08:11:07.781Z,81.56
2022-09-14T08:13:55.373Z,80.07
2022-09-14T08:16:41.735Z,81.28
2022-09-14T08:19:27.922Z,82.11
2022-09-14T08:22:13.657Z,83.39
2022-09-14T08:24:59.589Z,82.27
2022-09-14T08:27:45.471Z,82.08
2022-09-14T08:30:31.254Z,84.33
2022-09-14T08:33:17.122Z,81.79
2022-09-14T08:36:03.643Z,82.34
2022-09-14T08:38:49.722Z,83.74
2022-09-14T08:41:38.400Z,82.13
2022-09-14T08:44:30.696Z,80.00
2022-09-14T08:47:21.994Z,79.97
2022-09-14T08:50:11.410Z,80.76
2022-09-14T08:52:59.646Z,77.99
2022-09-14T08:55:49.629Z,79.55
2022-09-14T08:58:56.473Z,78.10
2022-09-14T09:02:03.268Z,73.11
2022-09-14T09:04:54.082Z,77.48
2022-09-14T09:07:56.374Z,76.55
2022-09-14T09:10:42.529Z,75.47
2022-09-14T09:13:31.703Z,76.87
2022-09-14T09:16:21.261Z,77.09
2022-09-14T09:19:13.043Z,73.67
2022-09-14T09:22:00.065Z,75.28
2022-09-14T09:24:50.457Z,73.18
2022-09-14T09:27:36.504Z,73.29
2022-09-14T09:30:22.520Z,73.60
2022-09-14T09:33:13.629Z,73.15
2022-09-14T09:36:00.136Z,73.00
2022-09-14T09:38:46.575Z,73.64
2022-09-14T09:41:37.052Z,68.72
2022-09-14T09:44:23.582Z,83.18
2022-09-14T09:47:09.189Z,75.08
2022-09-14T09:50:01.099Z,76.71
2022-09-14T09:53:03.254Z,71.73
2022-09-14T09:55:52.363Z,69.00
2022-09-14T09:58:38.611Z,66.81
2022-09-14T10:01:29.106Z,68.13
2022-09-14T10:04:20.091Z,66.20
2022-09-14T10:07:06.877Z,70.52
2022-09-14T10:10:00.163Z,74.66
2022-09-14T10:12:47.229Z,70.23
2022-09-14T10:15:34.976Z,70.30
2022-09-14T10:18:20.907Z,70.89
2022-09-14T10:21:08.148Z,68.51
2022-09-14T10:24:12.853Z,67.43
2022-09-14T10:26:58.671Z,66.97
2022-09-14T10:29:44.540Z,67.97
2022-09-14T10:32:32.694Z,67.43
2022-09-14T10:35:19.902Z,67.65
2022-09-14T10:38:06.631Z,67.54
2022-09-14T10:40:55.048Z,66.64
2022-09-14T10:43:51.435Z,65.06
2022-09-14T10:46:45.940Z,64.21
2022-09-14T10:49:37.972Z,66.28
2022-09-14T10:52:33.377Z,66.45
2022-09-14T10:55:35.315Z,64.72
2022-09-14T10:58:36.500Z,68.30
2022-09-14T11:01:22.738Z,66.92
2022-09-14T11:04:29.221Z,65.65
2022-09-14T11:07:18.731Z,65.81
2022-09-14T11:10:08.573Z,65.69
2022-09-14T11:12:57.793Z,65.85
2022-09-14T11:16:02.613Z,69.05
2022-09-14T11:18:50.142Z,71.12
2022-09-14T11:21:50.370Z,67.25
2022-09-14T11:24:36.104Z,65.78
2022-09-14T11:27:29.543Z,67.03
2022-09-14T11:30:19.486Z,65.63
2022-09-14T11:33:11.961Z,67.88
2022-09-14T11:35:59.661Z,67.82
2022-09-14T11:39:21.152Z,65.49
2022-09-14T11:42:08.259Z,66.07
2022-09-14T11:45:05.815Z,67.29
2022-09-14T11:47:57.250Z,67.12
2022-09-14T11:50:43.220Z,65.60
2022-09-14T11:53:29.250Z,63.12
2022-09-14T11:56:26.892Z,65.69
2022-09-14T11:59:32.963Z,65.43
2022-09-14T12:02:24.893Z,65.02
2022-09-14T12:05:11.097Z,62.63
2022-09-14T12:08:01.880Z,64.46
2022-09-14T12:11:09.501Z,63.81
2022-09-14T12:14:30.410Z,65.25
2022-09-14T12:17:38.859Z,64.91
2022-09-14T12:20:38.563Z,60.32
2022-09-14T12:23:37.220Z,63.67
2022-09-14T12:26:23.163Z,68.10
2022-09-14T12:29:31.760Z,64.30
2022-09-14T12:32:41.397Z,64.08
2022-09-14T12:35:40.031Z,60.01
2022-09-14T12:38:31.900Z,58.11
2022-09-14T12:41:17.900Z,57.91
2022-09-14T12:44:05.356Z,58.76
2022-09-14T12:46:51.654Z,58.66
2022-09-14T12:49:38.305Z,55.48
2022-09-14T12:52:38.489Z,58.20
2022-09-14T12:55:36.897Z,54.40
2022-09-14T12:58:26.782Z,58.20
2022-09-14T13:01:27.836Z,58.42
2022-09-14T13:04:25.160Z,59.31
2022-09-14T13:07:19.609Z,55.44
2022-09-14T13:10:06.849Z,58.83
2022-09-14T13:12:52.983Z,61.28
2022-09-14T13:15:59.149Z,57.67
2022-09-14T13:18:45.591Z,58.00
2022-09-14T13:21:32.121Z,61.30
2022-09-14T13:24:38.838Z,64.04
2022-09-14T13:27:35.339Z,62.89
2022-09-14T13:30:22.116Z,57.44
2022-09-14T13:33:17.147Z,56.82
2022-09-14T13:36:04.205Z,59.51
2022-09-14T13:38:51.378Z,56.41
2022-09-14T13:41:42.954Z,57.50
2022-09-14T13:44:35.274Z,59.76
2022-09-14T13:47:24.337Z,58.74
2022-09-14T13:50:12.963Z,58.79
2022-09-14T13:53:04.148Z,57.57
2022-09-14T13:55:50.691Z,59.39
2022-09-14T13:58:37.202Z,57.52
2022-09-14T14:01:26.144Z,55.69
2022-09-14T14:04:39.144Z,59.04
2022-09-14T14:07:30.954Z,60.04
2022-09-14T14:10:32.859Z,58.85
2022-09-14T14:13:30.057Z,59.29
2022-09-14T14:16:22.367Z,53.18
2022-09-14T14:19:29.178Z,53.11
2022-09-14T14:22:30.682Z,56.42
2022-09-14T14:25:25.066Z,53.28
2022-09-14T14:28:16.134Z,52.04
2022-09-14T14:31:08.825Z,53.59
2022-09-14T14:33:56.116Z,57.58
2022-09-14T14:36:42.142Z,61.61
2022-09-14T14:39:32.591Z,58.29
2022-09-14T14:42:18.506Z,56.44
2022-09-14T14:45:05.238Z,55.05
2022-09-14T14:47:51.170Z,58.51
2022-09-14T14:50:38.559Z,56.32
2022-09-14T14:53:25.249Z,56.35
2022-09-14T14:56:12.085Z,54.17
2022-09-14T15:02:42.636Z,54.75
2022-09-14T15:05:31.048Z,55.29
2022-09-14T15:08:17.710Z,55.04
2022-09-14T15:11:03.893Z,55.33
2022-09-14T15:13:49.996Z,56.20
2022-09-14T15:16:36.114Z,55.82
2022-09-14T15:19:21.778Z,57.96
2022-09-14T15:22:09.086Z,58.89
2022-09-14T15:24:54.581Z,56.45
2022-09-14T15:27:41.034Z,55.70
2022-09-14T15:30:27.871Z,53.77
2022-09-14T15:33:15.217Z,53.50
2022-09-14T15:36:01.246Z,52.25
2022-09-14T15:38:48.640Z,53.06
2022-09-14T15:41:34.704Z,54.67
2022-09-14T15:44:20.691Z,53.66
2022-09-14T15:47:06.950Z,54.51
2022-09-14T15:49:53.298Z,54.86
2022-09-14T15:52:39.584Z,54.04
2022-09-14T15:55:25.485Z,53.29
2022-09-14T15:58:11.553Z,54.94
2022-09-14T16:00:57.697Z,56.78
2022-09-14T16:03:44.158Z,57.05
2022-09-14T16:06:30.569Z,56.96
2022-09-14T16:09:17.931Z,58.19
2022-09-14T16:12:04.094Z,57.32
2022-09-14T16:14:50.637Z,54.67
2022-09-14T16:17:36.428Z,55.24
2022-09-14T16:20:22.867Z,54.27
2022-09-14T16:23:09.161Z,52.74
2022-09-14T16:25:55.354Z,56.55
2022-09-14T16:28:41.974Z,55.43
2022-09-14T16:31:31.022Z,53.40
2022-09-14T16:34:24.214Z,53.45
2022-09-14T16:37:10.766Z,54.49
2022-09-14T16:39:56.670Z,53.89
2022-09-14T16:42:42.948Z,55.79
2022-09-14T16:45:29.046Z,56.13
2022-09-14T16:48:15.421Z,56.00
2022-09-14T16:51:04.694Z,56.56
2022-09-14T16:53:51.762Z,56.76
2022-09-14T16:56:37.877Z,57.78
2022-09-14T16:59:24.318Z,57.27
2022-09-14T17:02:10.963Z,57.37
2022-09-14T17:04:57.986Z,57.91
2022-09-14T17:07:44.029Z,59.72
2022-09-14T17:10:33.043Z,60.92
2022-09-14T17:13:19.065Z,64.12
2022-09-14T17:16:07.615Z,64.47
2022-09-14T17:18:55.861Z,64.83
2022-09-14T17:21:43.184Z,65.96
2022-09-14T17:24:28.967Z,64.38
2022-09-14T17:27:20.007Z,66.50
2022-09-14T17:30:06.446Z,66.16
2022-09-14T17:32:52.494Z,65.00
2022-09-14T17:35:40.579Z,64.95
2022-09-14T17:38:28.439Z,66.69
2022-09-14T17:41:17.069Z,69.52
2022-09-14T17:44:09.954Z,71.47
2022-09-14T17:46:56.095Z,70.40
2022-09-14T17:49:42.402Z,70.64
2022-09-14T17:52:28.490Z,69.39
2022-09-14T17:55:18.091Z,71.74
2022-09-14T17:58:04.192Z,72.31
2022-09-14T18:00:51.429Z,70.36
2022-09-14T18:03:38.521Z,70.88
2022-09-14T18:06:26.545Z,72.34
2022-09-14T18:09:13.891Z,73.12
2022-09-14T18:12:00.307Z,73.19
2022-09-14T18:14:48.155Z,75.52
2022-09-14T18:17:34.155Z,77.90
2022-09-14T18:20:20.318Z,80.87
2022-09-14T18:23:07.287Z,79.44
2022-09-14T18:25:53.482Z,78.43
2022-09-14T18:28:39.593Z,79.04
2022-09-14T18:31:26.604Z,79.78
2022-09-14T18:34:13.344Z,77.91
2022-09-14T18:36:59.731Z,77.86
2022-09-14T18:39:45.526Z,77.36
2022-09-14T18:42:32.831Z,76.30
2022-09-14T18:45:18.693Z,81.14
2022-09-14T18:48:05.904Z,78.86
2022-09-14T18:50:51.788Z,77.54
2022-09-14T18:53:38.426Z,79.35
2022-09-14T18:56:25.032Z,79.84
2022-09-14T18:59:12.325Z,81.12
2022-09-14T19:01:58.468Z,85.55
2022-09-14T19:04:45.149Z,90.73
2022-09-14T19:07:36.466Z,100.00
2022-09-14T19:10:23.547Z,98.47
2022-09-14T19:13:09.476Z,95.33
2022-09-14T19:15:56.697Z,93.66
2022-09-14T19:18:42.791Z,90.01
2022-09-14T19:21:30.771Z,87.55
2022-09-14T19:24:17.278Z,88.89
2022-09-14T19:27:03.959Z,87.89
2022-09-14T19:29:49.676Z,87.37
2022-09-14T19:32:35.984Z,89.55
2022-09-14T19:35:23.483Z,90.94
2022-09-14T19:38:09.985Z,90.35
2022-09-14T19:40:55.873Z,89.37
2022-09-14T19:43:42.275Z,91.20
2022-09-14T19:46:29.071Z,93.01
2022-09-14T19:49:18.490Z,98.54
2022-09-14T19:52:04.361Z,100.00
2022-09-14T19:54:50.179Z,100.00
2022-09-14T19:57:37.589Z,100.00
2022-09-14T20:00:23.772Z,97.60
2022-09-14T20:03:10.201Z,96.95
2022-09-14T20:06:02.721Z,100.00
2022-09-14T20:08:53.370Z,100.00
2022-09-14T20:11:39.529Z,99.32
2022-09-14T20:14:26.608Z,98.63
2022-09-14T20:17:12.730Z,96.47
2022-09-14T20:19:59.012Z,94.37
2022-09-14T20:22:45.002Z,96.54
2022-09-14T20:25:31.727Z,99.25
2022-09-14T20:28:17.812Z,100.00
2022-09-14T20:31:04.795Z,97.26
2022-09-14T20:33:51.093Z,97.78
2022-09-14T20:36:37.324Z,97.05
2022-09-14T20:39:23.600Z,98.11
2022-09-14T20:42:09.789Z,97.83
2022-09-14T20:44:55.733Z,97.00
2022-09-14T20:47:43.099Z,96.79
2022-09-14T20:50:29.378Z,98.30
2022-09-14T20:53:15.523Z,98.50
2022-09-14T20:56:05.443Z,99.13
2022-09-14T21:02:06.727Z,100.00
2022-09-14T21:04:52.874Z,100.00
2022-09-14T21:08:01.628Z,100.00
2022-09-14T21:10:47.693Z,100.00
2022-09-14T21:13:33.824Z,100.00
2022-09-14T21:16:22.386Z,100.00
2022-09-14T21:19:09.753Z,98.83
2022-09-14T21:21:55.921Z,100.00
2022-09-14T21:24:41.642Z,100.00
2022-09-14T21:27:27.944Z,95.99
2022-09-14T21:30:13.721Z,97.08
2022-09-14T21:33:00.370Z,97.60
2022-09-14T21:35:47.409Z,95.68
2022-09-14T21:38:36.524Z,98.33
2022-09-14T21:41:23.397Z,98.66
2022-09-14T21:44:09.827Z,100.00
2022-09-14T21:46:55.804Z,100.00
2022-09-14T21:49:42.167Z,100.00
2022-09-14T21:52:27.942Z,100.00
2022-09-14T21:55:14.428Z,99.61
2022-09-14T21:58:00.314Z,98.11
2022-09-14T22:00:46.509Z,96.88
2022-09-14T22:03:32.936Z,98.87
2022-09-14T22:06:19.747Z,98.61
2022-09-14T22:09:05.760Z,98.16
2022-09-14T22:11:51.774Z,98.80
2022-09-14T22:14:37.982Z,99.25
2022-09-14T22:17:23.742Z,98.36
2022-09-14T22:20:10.254Z,95.04
2022-09-14T22:22:56.010Z,95.52
2022-09-14T22:25:42.205Z,98.95
2022-09-14T22:28:28.107Z,99.46
2022-09-14T22:31:14.736Z,99.14
2022-09-14T22:34:00.673Z,99.45
2022-09-14T22:36:47.226Z,98.65
2022-09-14T22:39:33.245Z,97.31
2022-09-14T22:42:19.740Z,96.97
2022-09-14T22:45:06.069Z,97.58
2022-09-14T22:47:52.378Z,98.30
2022-09-14T22:50:38.355Z,98.65
2022-09-14T22:53:25.234Z,100.00
2022-09-14T22:56:13.721Z,100.00
2022-09-14T22:59:00.558Z,100.00
2022-09-14T23:01:46.780Z,100.00
2022-09-14T23:04:33.600Z,100.00
2022-09-14T23:07:20.149Z,100.00
2022-09-14T23:10:06.609Z,100.00
2022-09-14T23:12:52.156Z,100.00
2022-09-14T23:15:38.651Z,100.00
2022-09-14T23:18:24.492Z,100.00
2022-09-14T23:21:10.821Z,100.00
2022-09-14T23:23:58.002Z,100.00
2022-09-14T23:26:44.121Z,100.00
2022-09-14T23:29:30.276Z,100.00
2022-09-14T23:32:16.721Z,100.00
2022-09-14T23:35:02.570Z,100.00
2022-09-14T23:37:48.941Z,100.00
2022-09-14T23:40:34.868Z,100.00
2022-09-14T23:43:21.126Z,100.00
2022-09-14T23:46:07.054Z,100.00
2022-09-14T23:48:53.403Z,100.00
2022-09-14T23:51:39.594Z,100.00
2022-09-14T23:54:25.610Z,100.00
2022-09-14T23:57:11.444Z,100.00
2022-09-14T23:59:58.555Z,100.00
